Nearby METAR Reports

 

KBAX - Bad Axe, Michigan, USA
Distance from station: ESE 22mi, 35km
Updated: Wed, 15-Jul-2020 6:35am EDT
Clear
Clear
 Wind from SE
Wind: SE 8 mph , 13 km/h
Temperature: 66°F , 19°C
Dew Point: 61°F , 16°C
Humidity: 83%
Barometer: 30.06 inHg , 1017.9 hPa
Clouds: Clear
Visibility: 10 miles , 16 km
2020/07/15 10:35 KBAX 151035Z AUTO 14007KT 10SM CLR 19/16 A3006 RMK AO2 T01900163
KFNT - Flint, Michigan, USA
Distance from station: SSW 68mi, 109km
Updated: Wed, 15-Jul-2020 5:53am EDT
Clear
Clear
 Wind from SSE
Wind: SSE 8 mph , 13 km/h
Temperature: 64°F , 18°C
Dew Point: 61°F , 16°C
Humidity: 88%
Barometer: 30.05 inHg , 1017.6 hPa
Clouds: Clear
Visibility: 10 miles , 16 km
2020/07/15 09:53 KFNT 150953Z 16007KT 10SM CLR 18/16 A3005 RMK AO2 SLP173 T01780161 $
KMBS - Saginaw, Michigan, USA
Distance from station: SW 44mi, 70km
Updated: Wed, 15-Jul-2020 5:53am EDT
Clear
Clear
 Wind from S
Wind: S 10 mph , 17 km/h
Temperature: 70°F , 21°C
Dew Point: 57°F , 14°C
Humidity: 64%
Barometer: 30.04 inHg , 1017.3 hPa
Clouds: Clear
Visibility: 10 miles , 16 km
2020/07/15 09:53 KMBS 150953Z AUTO 17009KT 10SM CLR 21/14 A3004 RMK AO2 SLP167 T02110144
 
KDTW - Detroit/Wayne, Michigan, USA
Distance from station: SSE 117mi, 188km
Updated: Wed, 15-Jul-2020 5:53am EDT
Overcast
Overcast
 Wind from S
Wind: S 3 mph , 6 km/h
Temperature: 70°F , 21°C
Dew Point: 63°F , 17°C
Humidity: 78%
Barometer: 30.08 inHg , 1018.6 hPa
Clouds: Overcast
Visibility: 10 miles , 16 km
Cloud details: Few Clouds 6500 ft
Mostly cloudy 9000 ft
Overcast 22000 ft
2020/07/15 09:53 KDTW 150953Z 17003KT 10SM FEW065 BKN090 OVC220 21/17 A3008 RMK AO2 SLP180 T02060167
KP58 - Port Hope, Michigan, USA
Distance from station: ENE 30mi, 48km
Updated: Wed, 15-Jul-2020 5:51am EDT

 Wind from varies
Wind: varies 5 mph , 7 km/h
Temperature: 70°F , 21°C
Dew Point: 59°F , 15°C
Humidity: 69%
Barometer: 30.04 inHg , 1017.3 hPa
2020/07/15 09:51 KP58 150951Z AUTO VRB04KT 21/15 A3004 RMK AO1 SLP165 T02110150
KCFS - Caro/Tuscola, Michigan, USA
Distance from station: S 31mi, 50km
Updated: Wed, 15-Jul-2020 6:35am EDT
Clear
Clear
 Wind from SSE
Wind: SSE 5 mph , 7 km/h
Temperature: 68°F , 20°C
Dew Point: 63°F , 17°C
Humidity: 83%
Barometer: 30.04 inHg , 1017.3 hPa
Clouds: Clear
Visibility: 10 miles , 16 km
2020/07/15 10:35 KCFS 151035Z AUTO 15004KT 10SM CLR 20/17 A3004 RMK AO2 T02020165
 
KPHN - Port Huron, Michigan, USA
Distance from station: SSE 81mi, 131km
Updated: Wed, 15-Jul-2020 6:37am EDT
Fog, Overcast
Fog, Overcast
 Wind from calm
Wind: Calm
Temperature: 59°F , 15°C
Dew Point: 59°F , 15°C
Humidity: 100%
Barometer: 30.09 inHg , 1019 hPa
Summary: Fog
Clouds: Overcast
Visibility: 1/2 mile , 0.8 km
Cloud details: Overcast 500 ft
2020/07/15 10:37 KPHN 151037Z AUTO 00000KT 1/2SM FG VV005 15/15 A3009 RMK AO2
KPTK - Pontiac, Michigan, USA
Distance from station: S 86mi, 138km
Updated: Wed, 15-Jul-2020 5:53am EDT
Mostly cloudy
Mostly cloudy
 Wind from SSE
Wind: SSE 5 mph , 7 km/h
Temperature: 70°F , 21°C
Dew Point: 63°F , 17°C
Humidity: 78%
Barometer: 30.07 inHg , 1018.3 hPa
Clouds: Mostly cloudy
Visibility: 10 miles , 16 km
Cloud details: Few Clouds 7500 ft
Few Clouds 12000 ft
Mostly cloudy 25000 ft
2020/07/15 09:53 KPTK 150953Z 16004KT 10SM FEW075 FEW120 BKN250 21/17 A3007 RMK AO2 SLP176 T02060172 $
KMTC - Selfridge Angb, Michigan, USA
Distance from station: SSE 94mi, 151km
Updated: Wed, 15-Jul-2020 5:56am EDT
Clear
Clear
 Wind from ESE
Wind: ESE 3 mph , 6 km/h
Temperature: 70°F , 21°C
Dew Point: 70°F , 21°C
Humidity: 100%
Barometer: 30.07 inHg , 1018.3 hPa
Clouds: Clear
Visibility: 10 miles , 16 km
2020/07/15 09:56 KMTC 150956Z AUTO 12003KT 10SM CLR 21/21 A3007 RMK AO2 SLP184 T02070207